A7AAX OTBD-OTBD
Flight info
| Callsign | A7AAX |
|---|---|
| Flight time | 0h 22m |
| Altitude | 1500 |
| Route | VFR |
| Aircraft | C172/L-V/N |
Departure
| Time | 2026-04-30 19:14 |
|---|---|
| Airport | Doha International Airport (OTBD) |
Arrival
| Time | 2026-04-30 19:37 |
|---|---|
| Airport | Doha International Airport (OTBD) |
| Time | Latitude | Longitude | Altitude | Speed | Heading |
|---|---|---|---|---|---|
| 2026-04-30 18:46 | 25.25995 | 51.56196 | 35 ft | 0 kts | 249° |
| 2026-04-30 19:08 | 25.25990 | 51.56189 | 35 ft | 0 kts | 202° |
| 2026-04-30 19:08 | 25.26001 | 51.56234 | 35 ft | 13 kts | 5° |
| 2026-04-30 19:08 | 25.26053 | 51.56283 | 34 ft | 17 kts | 126° |
| 2026-04-30 19:09 | 25.25813 | 51.56439 | 28 ft | 19 kts | 156° |
| 2026-04-30 19:09 | 25.25696 | 51.56490 | 27 ft | 18 kts | 156° |
| 2026-04-30 19:09 | 25.25589 | 51.56536 | 26 ft | 17 kts | 158° |
| 2026-04-30 19:10 | 25.25393 | 51.56625 | 24 ft | 14 kts | 159° |
| 2026-04-30 19:10 | 25.25230 | 51.56695 | 26 ft | 10 kts | 159° |
| 2026-04-30 19:11 | 25.25170 | 51.56721 | 27 ft | 7 kts | 158° |
| 2026-04-30 19:11 | 25.25103 | 51.56752 | 28 ft | 2 kts | 157° |
| 2026-04-30 19:11 | 25.25095 | 51.56755 | 28 ft | 0 kts | 147° |
| 2026-04-30 19:12 | 25.25084 | 51.56770 | 28 ft | 5 kts | 99° |
| 2026-04-30 19:12 | 25.25102 | 51.56829 | 28 ft | 10 kts | 64° |
| 2026-04-30 19:13 | 25.25259 | 51.56883 | 22 ft | 36 kts | 334° |
| 2026-04-30 19:13 | 25.25930 | 51.56534 | 291 ft | 50 kts | 319° |
| 2026-04-30 19:13 | 25.26156 | 51.56249 | 469 ft | 48 kts | 311° |
| 2026-04-30 19:14 | 25.26339 | 51.55888 | 584 ft | 58 kts | 305° |
| 2026-04-30 19:14 | 25.26513 | 51.55489 | 736 ft | 59 kts | 308° |
| 2026-04-30 19:14 | 25.26699 | 51.55092 | 896 ft | 59 kts | 302° |
| 2026-04-30 19:14 | 25.26881 | 51.54690 | 1051 ft | 56 kts | 313° |
| 2026-04-30 19:15 | 25.27093 | 51.54328 | 1191 ft | 60 kts | 306° |
| 2026-04-30 19:15 | 25.27172 | 51.53391 | 1435 ft | 93 kts | 222° |
| 2026-04-30 19:15 | 25.26536 | 51.53442 | 1499 ft | 101 kts | 129° |
| 2026-04-30 19:16 | 25.26531 | 51.54041 | 1460 ft | 80 kts | 25° |
| 2026-04-30 19:16 | 25.26998 | 51.53872 | 1425 ft | 94 kts | 295° |
| 2026-04-30 19:16 | 25.25903 | 51.53268 | 1395 ft | 118 kts | 134° |
| 2026-04-30 19:17 | 25.25615 | 51.53966 | 1489 ft | 83 kts | 61° |
| 2026-04-30 19:17 | 25.25559 | 51.53530 | 1462 ft | 121 kts | 154° |
| 2026-04-30 19:17 | 25.25465 | 51.54142 | 1654 ft | 67 kts | 47° |
| 2026-04-30 19:18 | 25.25837 | 51.54810 | 1872 ft | 62 kts | 26° |
| 2026-04-30 19:18 | 25.26301 | 51.55159 | 1984 ft | 67 kts | 22° |
| 2026-04-30 19:18 | 25.26729 | 51.55364 | 2031 ft | 71 kts | 13° |
| 2026-04-30 19:19 | 25.27176 | 51.55617 | 2112 ft | 74 kts | 25° |
| 2026-04-30 19:19 | 25.27578 | 51.55923 | 2238 ft | 66 kts | 18° |
| 2026-04-30 19:19 | 25.28393 | 51.56925 | 2059 ft | 96 kts | 45° |
| 2026-04-30 19:20 | 25.28742 | 51.57544 | 1965 ft | 101 kts | 51° |
| 2026-04-30 19:20 | 25.29043 | 51.58233 | 1906 ft | 102 kts | 53° |
| 2026-04-30 19:20 | 25.29752 | 51.59714 | 1481 ft | 111 kts | 60° |
| 2026-04-30 19:21 | 25.29903 | 51.60514 | 1434 ft | 108 kts | 69° |
| 2026-04-30 19:21 | 25.30242 | 51.61962 | 1448 ft | 107 kts | 89° |
| 2026-04-30 19:22 | 25.29709 | 51.63504 | 1508 ft | 99 kts | 95° |
| 2026-04-30 19:22 | 25.29876 | 51.64621 | 1339 ft | 130 kts | 223° |
| 2026-04-30 19:23 | 25.29540 | 51.64645 | 1151 ft | 121 kts | 250° |
| 2026-04-30 19:24 | 25.29077 | 51.64708 | 773 ft | 69 kts | 328° |
| 2026-04-30 19:24 | 25.29491 | 51.64458 | 784 ft | 76 kts | 336° |
| 2026-04-30 19:24 | 25.29422 | 51.64319 | 534 ft | 100 kts | 51° |
| 2026-04-30 19:25 | 25.29712 | 51.64149 | 625 ft | 79 kts | 269° |
| 2026-04-30 19:26 | 25.29584 | 51.64564 | 460 ft | 81 kts | 354° |
| 2026-04-30 19:26 | 25.29546 | 51.64534 | 454 ft | 84 kts | 315° |
| 2026-04-30 19:26 | 25.29856 | 51.64530 | 227 ft | 123 kts | 126° |
| 2026-04-30 19:27 | 25.29529 | 51.64779 | 441 ft | 93 kts | 185° |
| 2026-04-30 19:27 | 25.29391 | 51.64833 | 501 ft | 96 kts | 200° |
| 2026-04-30 19:28 | 25.29396 | 51.64364 | 502 ft | 80 kts | 315° |
| 2026-04-30 19:28 | 25.28912 | 51.63312 | 929 ft | 80 kts | 224° |
| 2026-04-30 19:29 | 25.27685 | 51.62898 | 1066 ft | 110 kts | 179° |
| 2026-04-30 19:29 | 25.26780 | 51.62929 | 780 ft | 132 kts | 172° |
| 2026-04-30 19:30 | 25.24499 | 51.63646 | 689 ft | 100 kts | 272° |
| 2026-04-30 19:30 | 25.25481 | 51.62722 | 142 ft | 103 kts | 337° |
| 2026-04-30 19:31 | 25.26702 | 51.62168 | 27 ft | 84 kts | 340° |
| 2026-04-30 19:31 | 25.27193 | 51.61946 | 202 ft | 69 kts | 335° |
| 2026-04-30 19:31 | 25.27917 | 51.61518 | 553 ft | 57 kts | 338° |
| 2026-04-30 19:32 | 25.28295 | 51.61558 | 711 ft | 57 kts | 20° |
| 2026-04-30 19:32 | 25.28584 | 51.61945 | 806 ft | 71 kts | 46° |
| 2026-04-30 19:32 | 25.28139 | 51.62390 | 782 ft | 111 kts | 156° |
| 2026-04-30 19:32 | 25.27420 | 51.62736 | 808 ft | 113 kts | 149° |
| 2026-04-30 19:33 | 25.26733 | 51.63173 | 866 ft | 110 kts | 141° |
| 2026-04-30 19:33 | 25.26079 | 51.63600 | 953 ft | 111 kts | 147° |
| 2026-04-30 19:33 | 25.25359 | 51.63924 | 1039 ft | 112 kts | 153° |
| 2026-04-30 19:33 | 25.24602 | 51.64256 | 1056 ft | 118 kts | 154° |
| 2026-04-30 19:34 | 25.23846 | 51.64617 | 1058 ft | 120 kts | 147° |
| 2026-04-30 19:34 | 25.23116 | 51.65065 | 1084 ft | 117 kts | 141° |
| 2026-04-30 19:34 | 25.22027 | 51.65225 | 1107 ft | 89 kts | 315° |
| 2026-04-30 19:35 | 25.22393 | 51.64734 | 1117 ft | 88 kts | 312° |
| 2026-04-30 19:35 | 25.22788 | 51.64151 | 920 ft | 100 kts | 317° |
| 2026-04-30 19:35 | 25.23345 | 51.63702 | 768 ft | 99 kts | 335° |
| 2026-04-30 19:35 | 25.23962 | 51.63389 | 697 ft | 93 kts | 337° |
| 2026-04-30 19:36 | 25.24585 | 51.63100 | 487 ft | 101 kts | 339° |
| 2026-04-30 19:36 | 25.25247 | 51.62809 | 251 ft | 106 kts | 340° |
| 2026-04-30 19:36 | 25.26456 | 51.62276 | 5 ft | 63 kts | 340° |
| 2026-04-30 19:37 | 25.26789 | 51.62130 | 5 ft | 39 kts | 339° |
| 2026-04-30 19:37 | 25.26975 | 51.62045 | 5 ft | 15 kts | 340° |
| 2026-04-30 19:37 | 25.26985 | 51.62041 | 4 ft | 0 kts | 339° |
| 2026-04-30 19:38 | 25.27165 | 51.61962 | 5 ft | 51 kts | 341° |
| 2026-04-30 19:38 | 25.27542 | 51.61816 | 192 ft | 47 kts | 342° |
| 2026-04-30 19:39 | 25.27854 | 51.61655 | 347 ft | 51 kts | 330° |
| 2026-04-30 19:39 | 25.28176 | 51.61440 | 508 ft | 51 kts | 332° |
| 2026-04-30 19:39 | 25.28532 | 51.61433 | 670 ft | 52 kts | 9° |
| 2026-04-30 19:39 | 25.28726 | 51.61813 | 680 ft | 97 kts | 104° |
| 2026-04-30 19:40 | 25.28046 | 51.62237 | 652 ft | 116 kts | 150° |
| 2026-04-30 19:40 | 25.27399 | 51.62598 | 832 ft | 103 kts | 142° |
| 2026-04-30 19:40 | 25.26716 | 51.63010 | 801 ft | 117 kts | 146° |
| 2026-04-30 19:40 | 25.25986 | 51.63478 | 749 ft | 125 kts | 144° |
| 2026-04-30 19:41 | 25.25233 | 51.63904 | 828 ft | 117 kts | 153° |
| 2026-04-30 19:41 | 25.24586 | 51.63671 | 985 ft | 89 kts | 253° |
| 2026-04-30 19:41 | 25.24744 | 51.63076 | 669 ft | 102 kts | 329° |
| 2026-04-30 19:41 | 25.25442 | 51.62730 | 240 ft | 113 kts | 338° |
| 2026-04-30 19:42 | 25.26154 | 51.62405 | 64 ft | 101 kts | 339° |
| 2026-04-30 19:42 | 25.26786 | 51.62127 | 30 ft | 93 kts | 338° |
| 2026-04-30 19:42 | 25.27335 | 51.61879 | 174 ft | 77 kts | 336° |
| 2026-04-30 19:42 | 25.27750 | 51.61668 | 417 ft | 60 kts | 340° |
| 2026-04-30 19:43 | 25.28135 | 51.61711 | 638 ft | 48 kts | 8° |
| 2026-04-30 19:43 | 25.28403 | 51.62002 | 714 ft | 81 kts | 87° |
| 2026-04-30 19:43 | 25.27832 | 51.62366 | 736 ft | 103 kts | 153° |
| 2026-04-30 19:44 | 25.26538 | 51.63220 | 832 ft | 114 kts | 140° |
| 2026-04-30 19:44 | 25.25810 | 51.63685 | 715 ft | 129 kts | 150° |
| 2026-04-30 19:44 | 25.25000 | 51.63960 | 895 ft | 105 kts | 179° |
| 2026-04-30 19:44 | 25.24595 | 51.63459 | 891 ft | 103 kts | 256° |
| 2026-04-30 19:45 | 25.24291 | 51.62734 | 903 ft | 104 kts | 258° |
| 2026-04-30 19:45 | 25.24071 | 51.61976 | 882 ft | 103 kts | 270° |
| 2026-04-30 19:45 | 25.24236 | 51.61252 | 738 ft | 100 kts | 313° |
| 2026-04-30 19:45 | 25.24806 | 51.60808 | 443 ft | 108 kts | 340° |
| 2026-04-30 19:46 | 25.25534 | 51.60545 | 66 ft | 112 kts | 338° |
| 2026-04-30 19:46 | 25.26144 | 51.60284 | 24 ft | 70 kts | 338° |
| 2026-04-30 19:46 | 25.26509 | 51.60118 | 14 ft | 43 kts | 337° |
| 2026-04-30 19:46 | 25.26748 | 51.60010 | 16 ft | 31 kts | 339° |
| 2026-04-30 19:47 | 25.26884 | 51.59983 | 17 ft | 4 kts | 56° |
| 2026-04-30 19:47 | 25.26889 | 51.59996 | 17 ft | 5 kts | 73° |
| 2026-04-30 19:47 | 25.26920 | 51.60101 | 17 ft | 6 kts | 68° |
| 2026-04-30 19:47 | 25.26938 | 51.60144 | 17 ft | 6 kts | 66° |
| 2026-04-30 19:48 | 25.26956 | 51.60192 | 17 ft | 7 kts | 68° |